Time;durP1;ratioP1;P1;durP2;ratioP2;P2;SDS_P1;SDS_P2;PMS_P1;PMS_P2;Temp;Humidity;BMP_temperature;BMP_pressure;BME280_temperature;BME280_humidity;BME280_pressure;Samples;Min_cycle;Max_cycle;Signal;HPM_P1;HPM_P2
2024/02/20 00:02:04;;;;;;;;;;;22.50;39.10;;;;;;5073357;28;19929;-59
2024/02/20 00:04:31;;;;;;;;;;;22.50;39.10;;;;;;5073046;28;19924;-59
2024/02/20 00:06:58;;;;;;;;;;;22.50;39.00;;;;;;5073516;28;19931;-59
2024/02/20 00:09:25;;;;;;;;;;;22.50;39.00;;;;;;5072957;28;19924;-59
2024/02/20 00:11:52;;;;;;;;;;;22.60;39.00;;;;;;5073354;28;19931;-59
2024/02/20 00:14:19;;;;;;;;;;;22.50;38.90;;;;;;5073220;28;19975;-59
2024/02/20 00:16:47;;;;;;;;;;;22.50;39.00;;;;;;5073169;28;20031;-59
2024/02/20 00:19:14;;;;;;;;;;;22.50;39.00;;;;;;5073015;28;20409;-59
2024/02/20 00:21:41;;;;;;;;;;;22.50;39.00;;;;;;5073091;28;19963;-59
2024/02/20 00:24:09;;;;;;;;;;;22.50;39.00;;;;;;5073052;28;19978;-59
2024/02/20 00:26:36;;;;;;;;;;;22.50;39.00;;;;;;5072951;28;19928;-59
2024/02/20 00:29:03;;;;;;;;;;;22.50;39.00;;;;;;5072935;28;19925;-59
2024/02/20 00:31:32;;;;;;;;;;;22.50;39.00;;;;;;5073116;28;19935;-59
2024/02/20 00:34:00;;;;;;;;;;;22.50;39.10;;;;;;5072808;28;19928;-59
2024/02/20 00:36:27;;;;;;;;;;;22.40;39.00;;;;;;5072884;28;20015;-59
2024/02/20 00:38:54;;;;;;;;;;;22.40;39.00;;;;;;5072189;28;20390;-59
2024/02/20 00:41:21;;;;;;;;;;;22.40;39.00;;;;;;5073366;28;19925;-59
2024/02/20 00:43:48;;;;;;;;;;;22.40;39.10;;;;;;5073169;28;20017;-59
2024/02/20 00:46:19;;;;;;;;;;;22.40;39.10;;;;;;5073213;28;19924;-59
2024/02/20 00:48:48;;;;;;;;;;;22.40;39.10;;;;;;5073020;28;19925;-59
2024/02/20 00:51:19;;;;;;;;;;;22.40;39.20;;;;;;5072591;28;20413;-59
2024/02/20 00:53:46;;;;;;;;;;;22.30;39.20;;;;;;5072349;28;19978;-59
2024/02/20 00:56:13;;;;;;;;;;;22.30;39.20;;;;;;5073062;28;20278;-59
2024/02/20 00:58:44;;;;;;;;;;;22.30;39.10;;;;;;5076688;28;19979;-59
2024/02/20 01:01:14;;;;;;;;;;;22.40;39.10;;;;;;5076868;28;19924;-59
2024/02/20 01:03:42;;;;;;;;;;;22.30;39.00;;;;;;5076337;28;19925;-60
2024/02/20 01:06:10;;;;;;;;;;;22.30;39.10;;;;;;5076763;28;20019;-59
2024/02/20 01:08:38;;;;;;;;;;;22.30;39.10;;;;;;5076252;28;19986;-59
2024/02/20 01:11:06;;;;;;;;;;;22.30;39.20;;;;;;5076088;28;19963;-59
2024/02/20 01:13:33;;;;;;;;;;;22.30;39.20;;;;;;5076048;28;19946;-59
2024/02/20 01:16:00;;;;;;;;;;;22.30;39.20;;;;;;5076441;28;19928;-59
2024/02/20 01:18:28;;;;;;;;;;;22.20;39.20;;;;;;5076073;28;19924;-59
2024/02/20 01:20:55;;;;;;;;;;;22.20;39.10;;;;;;5075919;28;19976;-59
2024/02/20 01:23:22;;;;;;;;;;;22.20;39.10;;;;;;5076095;28;20381;-58
2024/02/20 01:25:49;;;;;;;;;;;22.20;39.10;;;;;;5076427;28;20275;-58
2024/02/20 01:28:17;;;;;;;;;;;22.30;39.20;;;;;;5075885;28;19925;-58
2024/02/20 01:30:45;;;;;;;;;;;22.20;39.10;;;;;;5075910;28;19924;-59
2024/02/20 01:33:12;;;;;;;;;;;22.20;39.20;;;;;;5074486;28;19976;-59
2024/02/20 01:35:41;;;;;;;;;;;22.20;39.10;;;;;;5075821;28;19931;-59
2024/02/20 01:38:08;;;;;;;;;;;22.30;39.70;;;;;;5076047;28;19930;-59
2024/02/20 01:40:36;;;;;;;;;;;22.20;39.20;;;;;;5075940;28;19925;-60
2024/02/20 01:43:04;;;;;;;;;;;22.30;39.20;;;;;;5075366;28;19925;-59
2024/02/20 01:45:31;;;;;;;;;;;22.20;39.10;;;;;;5075973;28;19929;-59
2024/02/20 01:48:02;;;;;;;;;;;22.20;39.10;;;;;;5075663;28;19924;-59
2024/02/20 01:50:31;;;;;;;;;;;22.20;39.10;;;;;;5075844;28;19925;-59
2024/02/20 01:52:58;;;;;;;;;;;22.20;39.10;;;;;;5075881;28;19924;-60
2024/02/20 01:55:25;;;;;;;;;;;22.20;39.20;;;;;;5074240;28;19974;-59
2024/02/20 01:57:52;;;;;;;;;;;22.20;39.20;;;;;;5075650;28;19924;-59
2024/02/20 02:00:19;;;;;;;;;;;22.20;39.20;;;;;;5075542;28;19932;-59
2024/02/20 02:02:46;;;;;;;;;;;22.20;39.20;;;;;;5075129;28;19963;-59
2024/02/20 02:05:13;;;;;;;;;;;22.20;39.10;;;;;;5075494;28;19986;-59
2024/02/20 02:07:40;;;;;;;;;;;22.20;39.20;;;;;;5075193;28;19951;-59
2024/02/20 02:10:07;;;;;;;;;;;22.10;39.10;;;;;;5074507;28;19931;-59
2024/02/20 02:12:34;;;;;;;;;;;22.10;39.10;;;;;;5075170;28;19931;-59
2024/02/20 02:15:01;;;;;;;;;;;22.10;39.20;;;;;;5075132;28;20332;-59
2024/02/20 02:17:28;;;;;;;;;;;22.10;39.20;;;;;;5074411;28;19972;-59
2024/02/20 02:19:55;;;;;;;;;;;22.10;39.20;;;;;;5075105;28;19995;-59
2024/02/20 02:22:22;;;;;;;;;;;22.00;39.20;;;;;;5075191;28;19970;-59
2024/02/20 02:24:49;;;;;;;;;;;22.00;39.20;;;;;;5075208;28;19931;-59
2024/02/20 02:27:16;;;;;;;;;;;22.00;39.20;;;;;;5075186;28;19981;-59
2024/02/20 02:29:43;;;;;;;;;;;22.00;39.20;;;;;;5075328;28;19993;-59
2024/02/20 02:32:10;;;;;;;;;;;22.00;39.20;;;;;;5075063;28;19930;-59
2024/02/20 02:34:37;;;;;;;;;;;22.00;39.20;;;;;;5074107;28;19924;-59
2024/02/20 02:37:06;;;;;;;;;;;22.00;39.20;;;;;;5073327;28;19925;-59
2024/02/20 02:39:33;;;;;;;;;;;22.00;39.20;;;;;;5074648;28;19925;-59
2024/02/20 02:42:00;;;;;;;;;;;22.00;39.10;;;;;;5074960;28;19994;-59
2024/02/20 02:44:27;;;;;;;;;;;22.10;39.20;;;;;;5074771;28;19924;-59
2024/02/20 02:46:54;;;;;;;;;;;22.10;39.20;;;;;;5074474;28;19939;-59
2024/02/20 02:49:21;;;;;;;;;;;22.00;39.10;;;;;;5074511;28;19929;-59
2024/02/20 02:51:48;;;;;;;;;;;22.10;39.10;;;;;;5074133;28;19925;-59
2024/02/20 02:54:15;;;;;;;;;;;22.10;39.10;;;;;;5074144;28;20015;-60
2024/02/20 02:56:42;;;;;;;;;;;22.10;39.10;;;;;;5074510;28;19933;-59
2024/02/20 02:59:09;;;;;;;;;;;22.10;39.10;;;;;;5074364;28;19925;-59
2024/02/20 03:01:36;;;;;;;;;;;22.00;39.10;;;;;;5074302;28;19924;-60
2024/02/20 03:04:04;;;;;;;;;;;22.00;39.10;;;;;;5074467;28;19924;-59
2024/02/20 03:06:35;;;;;;;;;;;22.00;39.20;;;;;;5073655;28;20403;-60
2024/02/20 03:09:05;;;;;;;;;;;22.00;39.10;;;;;;5073951;28;19931;-60
2024/02/20 03:11:32;;;;;;;;;;;22.00;39.10;;;;;;5074018;28;20007;-60
2024/02/20 03:13:59;;;;;;;;;;;22.00;39.00;;;;;;5074058;28;19932;-60
2024/02/20 03:16:26;;;;;;;;;;;22.00;39.00;;;;;;5073934;28;19925;-59
2024/02/20 03:18:53;;;;;;;;;;;22.00;39.00;;;;;;5073035;28;20302;-60
2024/02/20 03:21:20;;;;;;;;;;;22.00;39.00;;;;;;5073832;28;20387;-60
2024/02/20 03:23:47;;;;;;;;;;;22.00;39.10;;;;;;5073503;28;19925;-60
2024/02/20 03:26:14;;;;;;;;;;;22.00;39.10;;;;;;5072699;28;19964;-60
2024/02/20 03:28:43;;;;;;;;;;;21.90;39.00;;;;;;5072242;28;20010;-59
2024/02/20 03:31:10;;;;;;;;;;;21.90;39.10;;;;;;5073665;28;19924;-60
2024/02/20 03:33:37;;;;;;;;;;;21.90;39.10;;;;;;5073628;28;20011;-60
2024/02/20 03:36:04;;;;;;;;;;;21.90;39.10;;;;;;5073440;28;19928;-61
2024/02/20 03:38:31;;;;;;;;;;;21.90;39.10;;;;;;5073378;28;20394;-59
2024/02/20 03:40:58;;;;;;;;;;;22.00;39.10;;;;;;5073380;28;19968;-59
2024/02/20 03:43:26;;;;;;;;;;;21.90;39.00;;;;;;5073395;28;19924;-59
2024/02/20 03:45:53;;;;;;;;;;;21.90;39.00;;;;;;5073765;28;20007;-59
2024/02/20 03:48:20;;;;;;;;;;;21.90;39.00;;;;;;5073758;28;19924;-59
2024/02/20 03:50:47;;;;;;;;;;;21.90;39.10;;;;;;5073110;28;20022;-59
2024/02/20 03:53:15;;;;;;;;;;;21.90;39.00;;;;;;5073218;28;20337;-59
2024/02/20 03:55:42;;;;;;;;;;;21.90;39.00;;;;;;5073173;28;19972;-59
2024/02/20 03:58:09;;;;;;;;;;;21.90;39.10;;;;;;5073300;28;19924;-60
2024/02/20 04:00:36;;;;;;;;;;;21.90;39.00;;;;;;5073522;28;19968;-59
2024/02/20 04:03:03;;;;;;;;;;;22.00;39.10;;;;;;5072401;28;19924;-59
2024/02/20 04:05:33;;;;;;;;;;;21.90;39.00;;;;;;5073639;28;19932;-60
2024/02/20 04:08:00;;;;;;;;;;;21.90;39.00;;;;;;5073259;28;20011;-60
2024/02/20 04:10:27;;;;;;;;;;;21.90;39.00;;;;;;5073438;28;19971;-60
2024/02/20 04:12:54;;;;;;;;;;;21.90;39.10;;;;;;5073035;28;19975;-60
2024/02/20 04:15:21;;;;;;;;;;;21.90;39.10;;;;;;5073133;28;19924;-60
2024/02/20 04:17:47;;;;;;;;;;;21.90;39.10;;;;;;5072664;28;20366;-60
2024/02/20 04:20:15;;;;;;;;;;;21.90;39.10;;;;;;5073014;28;20015;-60
2024/02/20 04:22:42;;;;;;;;;;;21.90;39.00;;;;;;5072051;28;19975;-60
2024/02/20 04:25:09;;;;;;;;;;;21.90;39.00;;;;;;5088045;28;19924;-60
2024/02/20 04:27:37;;;;;;;;;;;21.90;39.00;;;;;;5089375;28;20369;-60
2024/02/20 04:30:06;;;;;;;;;;;21.90;39.00;;;;;;5072691;28;19964;-60
2024/02/20 04:32:33;;;;;;;;;;;21.80;39.00;;;;;;5075537;28;20392;-60
2024/02/20 04:35:00;;;;;;;;;;;21.80;39.00;;;;;;5076925;28;19971;-60
2024/02/20 04:37:27;;;;;;;;;;;21.80;39.10;;;;;;5071226;28;19971;-60
2024/02/20 04:39:54;;;;;;;;;;;21.80;38.80;;;;;;5064316;28;19924;-60
2024/02/20 04:42:22;;;;;;;;;;;21.80;38.50;;;;;;5057095;28;20378;-60
2024/02/20 04:44:50;;;;;;;;;;;21.80;38.30;;;;;;5057084;28;19925;-60
2024/02/20 04:47:17;;;;;;;;;;;21.80;38.20;;;;;;5056174;28;20067;-60
2024/02/20 04:49:47;;;;;;;;;;;21.90;38.00;;;;;;5071617;28;19932;-59
2024/02/20 04:52:14;;;;;;;;;;;21.90;37.90;;;;;;5071865;28;20019;-60
2024/02/20 04:54:41;;;;;;;;;;;21.90;37.80;;;;;;5056631;28;19937;-59
2024/02/20 04:57:08;;;;;;;;;;;21.90;37.80;;;;;;5073682;28;19930;-60
2024/02/20 04:59:35;;;;;;;;;;;21.90;37.70;;;;;;5076529;28;19925;-60
2024/02/20 05:02:02;;;;;;;;;;;21.90;37.60;;;;;;5076452;28;19929;-60
2024/02/20 05:04:29;;;;;;;;;;;21.90;37.50;;;;;;5076567;28;19972;-60
2024/02/20 05:06:56;;;;;;;;;;;21.90;37.40;;;;;;5076562;28;20011;-60
2024/02/20 05:09:24;;;;;;;;;;;21.90;37.30;;;;;;5076241;28;20358;-60
2024/02/20 05:11:51;;;;;;;;;;;21.90;37.20;;;;;;5075271;28;20356;-59
2024/02/20 05:14:17;;;;;;;;;;;21.90;37.20;;;;;;5076007;28;19939;-60
2024/02/20 05:16:44;;;;;;;;;;;21.90;37.10;;;;;;5075838;28;19928;-60
2024/02/20 05:19:11;;;;;;;;;;;21.90;37.10;;;;;;5075612;28;20152;-60
2024/02/20 05:21:38;;;;;;;;;;;21.90;37.10;;;;;;5075269;28;19930;-60
2024/02/20 05:24:05;;;;;;;;;;;21.90;37.00;;;;;;5072745;28;20032;-60
2024/02/20 05:26:32;;;;;;;;;;;21.90;37.10;;;;;;5075160;28;19982;-60
2024/02/20 05:28:59;;;;;;;;;;;21.90;37.10;;;;;;5074379;28;19932;-60
2024/02/20 05:31:30;;;;;;;;;;;21.90;37.10;;;;;;5075573;28;19964;-60
2024/02/20 05:33:58;;;;;;;;;;;21.90;37.00;;;;;;5075568;28;19925;-60
2024/02/20 05:36:26;;;;;;;;;;;21.90;36.90;;;;;;5072570;28;20011;-60
2024/02/20 05:38:53;;;;;;;;;;;21.90;36.90;;;;;;5075346;28;19934;-60
2024/02/20 05:41:20;;;;;;;;;;;21.90;36.80;;;;;;5075017;28;19932;-60
2024/02/20 05:43:46;;;;;;;;;;;22.00;36.90;;;;;;5074438;28;19925;-60
2024/02/20 05:46:13;;;;;;;;;;;22.00;36.80;;;;;;5073434;28;20011;-60
2024/02/20 05:48:40;;;;;;;;;;;22.00;36.70;;;;;;5055652;28;20003;-60
2024/02/20 05:51:13;;;;;;;;;;;22.00;36.70;;;;;;5058448;28;19924;-60
2024/02/20 05:53:40;;;;;;;;;;;22.00;36.70;;;;;;5074045;28;19976;-60
2024/02/20 05:56:07;;;;;;;;;;;22.00;36.70;;;;;;5075798;28;19932;-60
2024/02/20 05:58:34;;;;;;;;;;;22.00;36.70;;;;;;5075286;28;19931;-60
2024/02/20 06:01:01;;;;;;;;;;;22.00;36.70;;;;;;5074869;28;19929;-60
2024/02/20 06:03:28;;;;;;;;;;;22.00;36.70;;;;;;5075036;28;19929;-60
2024/02/20 06:05:55;;;;;;;;;;;22.00;36.60;;;;;;5074645;28;19938;-60
2024/02/20 06:08:23;;;;;;;;;;;22.10;36.60;;;;;;5074755;28;19925;-60
2024/02/20 06:10:50;;;;;;;;;;;22.10;36.60;;;;;;5073179;28;20391;-60
2024/02/20 06:13:17;;;;;;;;;;;22.10;36.60;;;;;;5075270;28;19928;-59
2024/02/20 06:15:44;;;;;;;;;;;22.10;36.50;;;;;;5075316;28;19932;-58
2024/02/20 06:18:11;;;;;;;;;;;22.10;36.50;;;;;;5072621;28;19925;-59
2024/02/20 06:20:41;;;;;;;;;;;22.10;36.50;;;;;;5071913;28;19932;-60
2024/02/20 06:23:08;;;;;;;;;;;22.10;36.50;;;;;;5064989;28;19924;-61
2024/02/20 06:25:35;;;;;;;;;;;22.10;36.50;;;;;;5071838;28;20015;-60
2024/02/20 06:28:02;;;;;;;;;;;22.10;36.90;;;;;;5072777;28;19986;-59
2024/02/20 06:30:30;;;;;;;;;;;22.20;37.30;;;;;;5065460;28;19932;-63
2024/02/20 06:33:00;;;;;;;;;;;22.20;37.50;;;;;;5063565;28;19983;-61
2024/02/20 06:35:27;;;;;;;;;;;22.30;37.60;;;;;;5062036;28;19971;-59
2024/02/20 06:37:54;;;;;;;;;;;22.40;37.70;;;;;;5064052;28;19970;-60
2024/02/20 06:40:21;;;;;;;;;;;22.40;37.90;;;;;;5066489;28;19997;-59
2024/02/20 06:42:48;;;;;;;;;;;22.50;37.90;;;;;;5066379;28;19924;-59
2024/02/20 06:45:15;;;;;;;;;;;22.50;37.80;;;;;;5064703;28;19935;-59
2024/02/20 06:47:42;;;;;;;;;;;22.50;37.90;;;;;;5072744;28;19970;-59
2024/02/20 06:50:11;;;;;;;;;;;22.50;37.80;;;;;;5066949;28;20301;-58
2024/02/20 06:52:39;;;;;;;;;;;22.50;37.80;;;;;;5062664;28;20400;-59
2024/02/20 06:55:07;;;;;;;;;;;22.60;37.70;;;;;;5061590;28;20332;-60
2024/02/20 06:57:35;;;;;;;;;;;22.60;37.50;;;;;;5064620;28;19933;-57
2024/02/20 07:00:03;;;;;;;;;;;22.60;37.40;;;;;;5065462;28;19943;-57
2024/02/20 07:02:31;;;;;;;;;;;22.60;37.40;;;;;;5064034;28;19933;-59
2024/02/20 07:04:57;;;;;;;;;;;22.60;37.30;;;;;;5064369;28;19932;-59
2024/02/20 07:07:24;;;;;;;;;;;22.70;37.30;;;;;;5059748;28;19928;-57
2024/02/20 07:09:51;;;;;;;;;;;22.70;37.20;;;;;;5095735;28;20011;-58
2024/02/20 07:12:18;;;;;;;;;;;22.70;37.20;;;;;;5068178;28;19925;-60
2024/02/20 07:14:45;;;;;;;;;;;22.70;37.30;;;;;;5066821;28;19974;-56
2024/02/20 07:17:12;;;;;;;;;;;22.80;37.70;;;;;;5067541;28;20251;-59
2024/02/20 07:19:39;;;;;;;;;;;22.80;38.00;;;;;;5066531;28;19928;-59
2024/02/20 07:22:07;;;;;;;;;;;22.80;37.80;;;;;;5063728;28;20445;-59
2024/02/20 07:24:34;;;;;;;;;;;22.90;37.60;;;;;;5063844;28;19933;-61
2024/02/20 07:27:01;;;;;;;;;;;23.00;37.70;;;;;;5056473;28;19986;-60
2024/02/20 07:29:28;;;;;;;;;;;23.00;37.60;;;;;;5064075;28;19929;-57
2024/02/20 07:31:55;;;;;;;;;;;23.00;37.50;;;;;;5065257;28;19932;-56
2024/02/20 07:34:22;;;;;;;;;;;23.10;37.60;;;;;;5059178;28;19959;-55
2024/02/20 07:36:49;;;;;;;;;;;23.10;37.70;;;;;;5065528;28;19935;-55
2024/02/20 07:39:16;;;;;;;;;;;23.20;38.20;;;;;;5063240;28;20011;-57
2024/02/20 07:41:43;;;;;;;;;;;23.20;37.60;;;;;;5071560;28;19993;-60
2024/02/20 07:44:10;;;;;;;;;;;23.20;37.50;;;;;;5065279;28;20398;-58
2024/02/20 07:46:37;;;;;;;;;;;23.30;37.60;;;;;;5063357;28;20338;-56
2024/02/20 07:49:05;;;;;;;;;;;23.30;37.60;;;;;;5064140;28;21252;-59
2024/02/20 07:51:33;;;;;;;;;;;23.40;37.50;;;;;;5062657;28;20320;-59
2024/02/20 07:54:00;;;;;;;;;;;23.40;37.50;;;;;;5063547;28;19928;-59
2024/02/20 07:56:29;;;;;;;;;;;23.50;37.40;;;;;;5065187;28;19925;-58
2024/02/20 07:58:56;;;;;;;;;;;23.50;37.30;;;;;;5063074;28;20019;-59
2024/02/20 08:01:24;;;;;;;;;;;23.60;37.20;;;;;;5064695;28;19930;-60
2024/02/20 08:03:52;;;;;;;;;;;23.60;37.10;;;;;;5063585;28;20332;-59
2024/02/20 08:06:20;;;;;;;;;;;23.60;37.00;;;;;;5066648;28;19967;-59
2024/02/20 08:08:48;;;;;;;;;;;23.60;36.90;;;;;;5064986;28;20332;-60
2024/02/20 08:11:15;;;;;;;;;;;23.60;36.80;;;;;;5063363;28;20018;-61
2024/02/20 08:13:45;;;;;;;;;;;23.70;37.00;;;;;;5063936;28;19932;-59
2024/02/20 08:16:13;;;;;;;;;;;23.70;37.10;;;;;;5064696;28;19931;-60
2024/02/20 08:18:40;;;;;;;;;;;23.70;37.30;;;;;;5064558;28;19928;-57
2024/02/20 08:21:10;;;;;;;;;;;23.70;37.30;;;;;;5066688;28;19962;-57
2024/02/20 08:23:37;;;;;;;;;;;23.80;37.30;;;;;;5061273;28;19928;-58
2024/02/20 08:26:05;;;;;;;;;;;23.90;37.30;;;;;;5063520;28;19932;-57
2024/02/20 08:28:32;;;;;;;;;;;23.90;37.10;;;;;;5057965;28;20364;-57
2024/02/20 08:30:59;;;;;;;;;;;23.90;37.10;;;;;;5062625;28;20062;-57
2024/02/20 08:33:26;;;;;;;;;;;24.00;37.20;;;;;;5058434;28;19933;-57
2024/02/20 08:35:53;;;;;;;;;;;24.10;37.10;;;;;;5064187;28;19933;-57
2024/02/20 08:38:20;;;;;;;;;;;24.10;36.90;;;;;;5058969;28;19971;-58
2024/02/20 08:40:47;;;;;;;;;;;24.20;36.90;;;;;;5064099;28;19939;-57
2024/02/20 08:43:15;;;;;;;;;;;24.20;36.80;;;;;;5062179;28;19928;-59
2024/02/20 08:45:42;;;;;;;;;;;24.30;36.80;;;;;;5061557;28;19932;-60
2024/02/20 08:48:09;;;;;;;;;;;24.30;36.70;;;;;;5066957;28;19987;-58
2024/02/20 08:50:36;;;;;;;;;;;24.30;36.70;;;;;;5069139;28;20009;-55
2024/02/20 08:53:07;;;;;;;;;;;24.30;36.70;;;;;;5066760;28;19978;-56
2024/02/20 08:55:34;;;;;;;;;;;24.40;36.70;;;;;;5065497;28;19928;-55
2024/02/20 08:58:01;;;;;;;;;;;24.40;36.60;;;;;;5065237;28;19971;-58
2024/02/20 09:00:28;;;;;;;;;;;24.40;36.40;;;;;;5072744;28;19924;-58
2024/02/20 09:02:57;;;;;;;;;;;24.40;36.30;;;;;;5068685;28;19986;-60
2024/02/20 09:05:24;;;;;;;;;;;24.50;36.30;;;;;;5065385;28;19928;-57
2024/02/20 09:07:51;;;;;;;;;;;24.50;36.20;;;;;;5069128;28;19943;-59
2024/02/20 09:10:18;;;;;;;;;;;24.50;36.10;;;;;;5063626;28;19933;-57
2024/02/20 09:12:45;;;;;;;;;;;24.50;36.10;;;;;;5064983;28;19932;-57
2024/02/20 09:15:12;;;;;;;;;;;24.50;36.00;;;;;;5062496;28;19929;-58
2024/02/20 09:17:40;;;;;;;;;;;24.50;36.00;;;;;;5066747;28;19932;-58
2024/02/20 09:20:09;;;;;;;;;;;24.50;36.10;;;;;;5066422;28;19964;-57
2024/02/20 09:22:38;;;;;;;;;;;24.50;36.10;;;;;;5067953;28;19932;-57
2024/02/20 09:25:06;;;;;;;;;;;24.50;36.20;;;;;;5070527;28;19979;-57
2024/02/20 09:27:34;;;;;;;;;;;24.50;36.30;;;;;;5071578;28;19982;-56
2024/02/20 09:30:01;;;;;;;;;;;24.50;36.30;;;;;;5069548;28;19931;-59
2024/02/20 09:32:28;;;;;;;;;;;24.60;36.30;;;;;;5067489;28;19978;-59
2024/02/20 09:34:55;;;;;;;;;;;24.60;36.30;;;;;;5065718;28;19936;-59
2024/02/20 09:37:22;;;;;;;;;;;24.70;36.30;;;;;;5069289;28;20373;-58
2024/02/20 09:39:49;;;;;;;;;;;24.70;36.10;;;;;;5066995;28;19928;-59
2024/02/20 09:42:20;;;;;;;;;;;24.70;36.00;;;;;;5067560;28;19968;-60
2024/02/20 09:44:48;;;;;;;;;;;24.80;36.00;;;;;;5069802;28;20000;-60
2024/02/20 09:47:17;;;;;;;;;;;24.80;36.00;;;;;;5072715;28;19990;-60
2024/02/20 09:49:45;;;;;;;;;;;24.80;36.00;;;;;;5061450;28;20580;-57
2024/02/20 09:52:12;;;;;;;;;;;24.80;35.90;;;;;;5068393;28;19968;-58
2024/02/20 09:54:40;;;;;;;;;;;24.90;35.90;;;;;;5068265;28;20296;-55
2024/02/20 09:57:07;;;;;;;;;;;24.90;35.90;;;;;;5072181;28;19938;-56
2024/02/20 09:59:34;;;;;;;;;;;24.90;35.80;;;;;;5063725;28;19932;-52
2024/02/20 10:02:02;;;;;;;;;;;24.90;35.80;;;;;;5066061;28;19937;-57
2024/02/20 10:04:33;;;;;;;;;;;25.00;35.80;;;;;;5067314;28;19935;-57
2024/02/20 10:07:04;;;;;;;;;;;25.00;35.70;;;;;;5076756;28;19933;-58
2024/02/20 10:09:31;;;;;;;;;;;25.00;35.60;;;;;;5068728;28;19990;-58
2024/02/20 10:11:58;;;;;;;;;;;25.00;35.50;;;;;;5071998;28;19994;-55
2024/02/20 10:14:25;;;;;;;;;;;25.00;35.50;;;;;;5067855;28;19935;-56
2024/02/20 10:17:03;;;;;;;;;;;25.00;35.40;;;;;;5068864;28;19936;-57
2024/02/20 10:19:30;;;;;;;;;;;25.00;35.40;;;;;;5065338;28;20290;-58
2024/02/20 10:21:59;;;;;;;;;;;25.00;35.40;;;;;;5096402;28;20019;-57
2024/02/20 10:24:26;;;;;;;;;;;25.10;35.50;;;;;;5093055;27;19925;-57
2024/02/20 10:27:04;;;;;;;;;;;25.10;35.40;;;;;;5068067;28;20041;-58
2024/02/20 10:29:31;;;;;;;;;;;25.10;35.30;;;;;;5066263;28;19925;-64
2024/02/20 10:31:58;;;;;;;;;;;25.10;35.20;;;;;;5066787;28;20007;-58
2024/02/20 10:34:25;;;;;;;;;;;25.10;35.10;;;;;;5065116;28;19932;-57
2024/02/20 10:37:03;;;;;;;;;;;25.10;35.10;;;;;;5064035;28;19934;-57
2024/02/20 10:39:29;;;;;;;;;;;25.20;34.90;;;;;;5067183;28;19924;-59
2024/02/20 10:41:59;;;;;;;;;;;25.20;34.90;;;;;;5067221;28;19931;-56
2024/02/20 10:44:27;;;;;;;;;;;25.20;34.90;;;;;;5065856;28;20019;-56
2024/02/20 10:46:56;;;;;;;;;;;25.20;34.90;;;;;;5069599;28;19935;-58
2024/02/20 10:49:25;;;;;;;;;;;25.20;35.00;;;;;;5066938;28;19924;-58
2024/02/20 10:51:57;;;;;;;;;;;25.30;35.00;;;;;;5061656;28;19924;-56
2024/02/20 10:54:25;;;;;;;;;;;25.30;35.00;;;;;;5063472;28;19947;-58
2024/02/20 10:57:05;;;;;;;;;;;25.30;34.90;;;;;;5068432;28;19936;-59
2024/02/20 10:59:32;;;;;;;;;;;25.30;35.40;;;;;;5068322;28;20287;-59
2024/02/20 11:02:01;;;;;;;;;;;25.40;34.80;;;;;;5068735;28;19932;-59
2024/02/20 11:04:28;;;;;;;;;;;25.40;34.20;;;;;;5069243;28;19928;-60
2024/02/20 11:06:55;;;;;;;;;;;25.40;34.20;;;;;;5071821;28;19940;-60
2024/02/20 11:09:25;;;;;;;;;;;25.40;34.30;;;;;;5071663;28;19946;-60
2024/02/20 11:11:52;;;;;;;;;;;25.40;34.40;;;;;;5065088;28;20297;-60
2024/02/20 11:14:29;;;;;;;;;;;25.40;34.50;;;;;;5073012;28;20312;-60
2024/02/20 11:16:56;;;;;;;;;;;25.40;34.50;;;;;;5068901;28;19953;-60
2024/02/20 11:19:26;;;;;;;;;;;25.40;34.60;;;;;;5068952;28;20324;-60
2024/02/20 11:22:04;;;;;;;;;;;25.40;34.60;;;;;;5068171;28;19974;-60
2024/02/20 11:24:32;;;;;;;;;;;25.40;34.50;;;;;;5070676;28;20066;-60
2024/02/20 11:27:04;;;;;;;;;;;25.40;34.50;;;;;;5069791;28;21443;-60
2024/02/20 11:29:30;;;;;;;;;;;25.50;34.40;;;;;;5070449;28;21223;-60
2024/02/20 11:32:08;;;;;;;;;;;25.50;34.40;;;;;;5065475;28;20381;-60
2024/02/20 11:34:35;;;;;;;;;;;25.50;34.30;;;;;;5062010;28;19971;-59
2024/02/20 11:37:03;;;;;;;;;;;25.50;34.30;;;;;;5067875;28;20381;-59
2024/02/20 11:39:30;;;;;;;;;;;25.50;34.30;;;;;;5069857;28;19931;-59
2024/02/20 11:41:57;;;;;;;;;;;25.50;34.80;;;;;;5069273;28;20049;-59
2024/02/20 11:44:25;;;;;;;;;;;25.50;34.20;;;;;;5061712;28;19925;-59
2024/02/20 11:46:53;;;;;;;;;;;25.50;34.20;;;;;;5065910;28;19928;-59
2024/02/20 11:49:24;;;;;;;;;;;25.50;34.10;;;;;;5065820;28;21531;-59
2024/02/20 11:52:04;;;;;;;;;;;25.50;34.60;;;;;;5067323;28;19924;-59
2024/02/20 11:54:31;;;;;;;;;;;25.60;34.20;;;;;;5063075;28;19931;-59
2024/02/20 11:56:59;;;;;;;;;;;25.60;34.10;;;;;;5064156;28;20289;-60
2024/02/20 11:59:26;;;;;;;;;;;25.60;34.10;;;;;;5061477;28;20339;-59
2024/02/20 12:01:53;;;;;;;;;;;25.60;34.10;;;;;;5065012;28;20394;-58
2024/02/20 12:04:27;;;;;;;;;;;25.60;34.20;;;;;;5066632;28;19932;-60
2024/02/20 12:06:56;;;;;;;;;;;25.60;34.10;;;;;;5066513;28;20500;-59
2024/02/20 12:09:23;;;;;;;;;;;25.60;34.10;;;;;;5068682;28;19924;-58
2024/02/20 12:11:50;;;;;;;;;;;25.70;34.30;;;;;;5066527;28;19931;-59
2024/02/20 12:14:18;;;;;;;;;;;25.70;34.40;;;;;;5069442;28;20003;-59
2024/02/20 12:16:45;;;;;;;;;;;25.70;34.30;;;;;;5067909;28;19939;-59
2024/02/20 12:19:21;;;;;;;;;;;25.80;34.10;;;;;;5065612;28;20283;-56
2024/02/20 12:22:00;;;;;;;;;;;25.80;34.10;;;;;;5072318;28;19946;-57
2024/02/20 12:24:27;;;;;;;;;;;25.90;33.90;;;;;;5070171;28;20297;-54
2024/02/20 12:26:54;;;;;;;;;;;25.90;33.70;;;;;;5069421;28;20031;-56
2024/02/20 12:29:21;;;;;;;;;;;26.00;33.70;;;;;;5068057;28;20364;-58
2024/02/20 12:31:48;;;;;;;;;;;26.00;33.50;;;;;;5065266;28;19935;-54
2024/02/20 12:34:17;;;;;;;;;;;26.00;33.40;;;;;;5068543;28;19936;-58
2024/02/20 12:36:48;;;;;;;;;;;26.10;33.40;;;;;;5063968;28;20542;-57
2024/02/20 12:39:16;;;;;;;;;;;26.10;33.40;;;;;;5065183;28;20464;-55
2024/02/20 12:41:43;;;;;;;;;;;26.10;33.10;;;;;;5064109;28;19932;-57
2024/02/20 12:44:10;;;;;;;;;;;26.10;32.90;;;;;;5063243;28;20228;-58
2024/02/20 12:46:37;;;;;;;;;;;26.10;33.00;;;;;;5066182;28;20433;-55
2024/02/20 12:49:04;;;;;;;;;;;26.10;32.90;;;;;;5064403;28;19949;-58
2024/02/20 12:51:31;;;;;;;;;;;26.10;32.60;;;;;;5065574;28;19931;-57
2024/02/20 12:53:58;;;;;;;;;;;26.10;32.50;;;;;;5066151;28;19924;-57
2024/02/20 12:56:26;;;;;;;;;;;26.10;32.50;;;;;;5069321;28;19949;-55
2024/02/20 12:58:52;;;;;;;;;;;26.10;32.40;;;;;;5066619;28;20435;-58
2024/02/20 13:01:20;;;;;;;;;;;26.10;32.40;;;;;;5065868;28;19933;-56
2024/02/20 13:03:47;;;;;;;;;;;26.10;32.40;;;;;;5063070;28;20343;-60
2024/02/20 13:06:14;;;;;;;;;;;26.00;29.40;;;;;;5067760;28;19928;-60
2024/02/20 13:08:41;;;;;;;;;;;25.80;29.20;;;;;;5094579;28;19977;-61
2024/02/20 13:11:09;;;;;;;;;;;25.60;29.20;;;;;;5067895;28;19935;-60
2024/02/20 13:13:37;;;;;;;;;;;25.40;30.00;;;;;;5065948;28;20039;-60
2024/02/20 13:16:04;;;;;;;;;;;25.40;30.70;;;;;;5066835;28;19980;-61
2024/02/20 13:18:32;;;;;;;;;;;25.40;31.60;;;;;;5067076;28;19952;-57
2024/02/20 13:21:02;;;;;;;;;;;25.40;31.90;;;;;;5072832;28;19924;-59
2024/02/20 13:23:29;;;;;;;;;;;25.40;32.10;;;;;;5066388;28;19939;-57
2024/02/20 13:25:56;;;;;;;;;;;25.40;32.40;;;;;;5068354;28;19995;-56
2024/02/20 13:28:23;;;;;;;;;;;25.40;33.30;;;;;;5067919;28;19982;-59
2024/02/20 13:30:50;;;;;;;;;;;25.40;32.80;;;;;;5065280;28;20007;-58
2024/02/20 13:33:17;;;;;;;;;;;25.40;33.00;;;;;;5064569;28;20435;-59
2024/02/20 13:35:44;;;;;;;;;;;25.50;33.10;;;;;;5068878;28;19936;-59
2024/02/20 13:38:13;;;;;;;;;;;25.50;33.10;;;;;;5067376;28;19928;-59
2024/02/20 13:40:41;;;;;;;;;;;25.60;33.10;;;;;;5064855;28;19925;-57
2024/02/20 13:43:09;;;;;;;;;;;25.60;33.20;;;;;;5068019;28;19932;-58
2024/02/20 13:45:43;;;;;;;;;;;25.70;33.30;;;;;;5066519;28;20039;-59
2024/02/20 13:48:14;;;;;;;;;;;25.70;33.40;;;;;;5064068;28;19963;-58
2024/02/20 13:50:45;;;;;;;;;;;25.70;33.10;;;;;;5066545;28;19931;-57
2024/02/20 13:53:13;;;;;;;;;;;25.80;33.00;;;;;;5065257;28;20326;-60
2024/02/20 13:55:41;;;;;;;;;;;25.80;32.10;;;;;;5069337;28;19928;-60
2024/02/20 13:58:08;;;;;;;;;;;25.80;32.30;;;;;;5069778;28;20289;-59
2024/02/20 14:00:35;;;;;;;;;;;25.80;32.30;;;;;;5090776;28;19959;-61
2024/02/20 14:03:02;;;;;;;;;;;25.80;32.20;;;;;;5069742;28;19932;-61
2024/02/20 14:05:29;;;;;;;;;;;25.90;32.30;;;;;;5070238;28;19936;-61
2024/02/20 14:07:57;;;;;;;;;;;25.90;32.10;;;;;;5070682;28;19977;-60
2024/02/20 14:10:24;;;;;;;;;;;25.90;32.10;;;;;;5071574;28;19931;-59
2024/02/20 14:12:51;;;;;;;;;;;25.90;31.90;;;;;;5066845;28;19939;-59
2024/02/20 14:15:18;;;;;;;;;;;25.90;31.80;;;;;;5067897;28;19935;-59
2024/02/20 14:17:45;;;;;;;;;;;25.80;31.70;;;;;;5067100;28;19928;-59
2024/02/20 14:20:12;;;;;;;;;;;25.80;31.90;;;;;;5069331;28;19947;-61